sensor_id;sensor_type;location;lat;lon;timestamp;P1;durP1;ratioP1;P2;durP2;ratioP2
17390;SDS011;8813;54.444;18.446;2024-01-15T00:00:07;6.30;;;6.10;;
17390;SDS011;8813;54.444;18.446;2024-01-15T00:05:14;8.70;;;8.30;;
17390;SDS011;8813;54.444;18.446;2024-01-15T00:07:41;6.60;;;6.10;;
17390;SDS011;8813;54.444;18.446;2024-01-15T00:10:09;4.67;;;4.57;;
17390;SDS011;8813;54.444;18.446;2024-01-15T00:12:36;4.80;;;4.70;;
17390;SDS011;8813;54.444;18.446;2024-01-15T00:15:04;4.67;;;4.53;;
17390;SDS011;8813;54.444;18.446;2024-01-15T00:17:32;5.27;;;5.07;;
17390;SDS011;8813;54.444;18.446;2024-01-15T00:20:01;5.70;;;5.50;;
17390;SDS011;8813;54.444;18.446;2024-01-15T00:22:31;4.80;;;4.70;;
17390;SDS011;8813;54.444;18.446;2024-01-15T00:24:58;4.60;;;4.50;;
17390;SDS011;8813;54.444;18.446;2024-01-15T00:27:25;4.77;;;4.67;;
17390;SDS011;8813;54.444;18.446;2024-01-15T00:29:53;4.60;;;4.50;;
17390;SDS011;8813;54.444;18.446;2024-01-15T00:32:20;4.70;;;4.60;;
17390;SDS011;8813;54.444;18.446;2024-01-15T00:34:47;4.90;;;4.80;;
17390;SDS011;8813;54.444;18.446;2024-01-15T00:37:15;5.20;;;5.00;;
17390;SDS011;8813;54.444;18.446;2024-01-15T00:39:48;4.70;;;4.60;;
17390;SDS011;8813;54.444;18.446;2024-01-15T00:42:18;5.30;;;5.20;;
17390;SDS011;8813;54.444;18.446;2024-01-15T00:44:45;5.30;;;4.80;;
17390;SDS011;8813;54.444;18.446;2024-01-15T00:47:13;4.90;;;4.73;;
17390;SDS011;8813;54.444;18.446;2024-01-15T00:49:46;4.60;;;4.50;;
17390;SDS011;8813;54.444;18.446;2024-01-15T00:52:14;4.50;;;4.40;;
17390;SDS011;8813;54.444;18.446;2024-01-15T00:54:41;5.40;;;5.07;;
17390;SDS011;8813;54.444;18.446;2024-01-15T00:57:11;4.10;;;4.00;;
17390;SDS011;8813;54.444;18.446;2024-01-15T00:59:39;4.40;;;4.30;;
17390;SDS011;8813;54.444;18.446;2024-01-15T01:02:06;4.47;;;4.37;;
17390;SDS011;8813;54.444;18.446;2024-01-15T01:04:33;4.23;;;4.10;;
17390;SDS011;8813;54.444;18.446;2024-01-15T01:07:00;3.97;;;3.87;;
17390;SDS011;8813;54.444;18.446;2024-01-15T01:09:28;4.07;;;3.97;;
17390;SDS011;8813;54.444;18.446;2024-01-15T01:11:55;3.90;;;3.80;;
17390;SDS011;8813;54.444;18.446;2024-01-15T01:14:25;4.10;;;4.00;;
17390;SDS011;8813;54.444;18.446;2024-01-15T01:16:52;3.97;;;3.87;;
17390;SDS011;8813;54.444;18.446;2024-01-15T01:19:19;3.30;;;3.30;;
17390;SDS011;8813;54.444;18.446;2024-01-15T01:21:47;3.50;;;3.40;;
17390;SDS011;8813;54.444;18.446;2024-01-15T01:24:16;3.67;;;3.57;;
17390;SDS011;8813;54.444;18.446;2024-01-15T01:26:43;3.73;;;3.53;;
17390;SDS011;8813;54.444;18.446;2024-01-15T01:29:11;3.50;;;3.40;;
17390;SDS011;8813;54.444;18.446;2024-01-15T01:31:43;3.27;;;3.27;;
17390;SDS011;8813;54.444;18.446;2024-01-15T01:34:10;3.60;;;3.50;;
17390;SDS011;8813;54.444;18.446;2024-01-15T01:36:38;3.00;;;3.00;;
17390;SDS011;8813;54.444;18.446;2024-01-15T01:39:07;3.37;;;3.27;;
17390;SDS011;8813;54.444;18.446;2024-01-15T01:41:34;3.10;;;3.10;;
17390;SDS011;8813;54.444;18.446;2024-01-15T01:44:07;3.40;;;3.30;;
17390;SDS011;8813;54.444;18.446;2024-01-15T01:46:36;2.90;;;2.90;;
17390;SDS011;8813;54.444;18.446;2024-01-15T01:49:07;2.70;;;2.70;;
17390;SDS011;8813;54.444;18.446;2024-01-15T01:51:34;3.17;;;3.07;;
17390;SDS011;8813;54.444;18.446;2024-01-15T01:54:03;3.07;;;2.87;;
17390;SDS011;8813;54.444;18.446;2024-01-15T01:56:31;2.90;;;2.90;;
17390;SDS011;8813;54.444;18.446;2024-01-15T01:58:58;2.77;;;2.77;;
17390;SDS011;8813;54.444;18.446;2024-01-15T02:01:27;3.20;;;3.20;;
17390;SDS011;8813;54.444;18.446;2024-01-15T02:03:54;3.90;;;3.80;;
17390;SDS011;8813;54.444;18.446;2024-01-15T02:06:23;4.67;;;4.57;;
17390;SDS011;8813;54.444;18.446;2024-01-15T02:08:50;4.30;;;4.20;;
17390;SDS011;8813;54.444;18.446;2024-01-15T02:11:18;4.87;;;4.73;;
17390;SDS011;8813;54.444;18.446;2024-01-15T02:13:45;4.70;;;4.60;;
17390;SDS011;8813;54.444;18.446;2024-01-15T02:16:13;4.70;;;4.60;;
17390;SDS011;8813;54.444;18.446;2024-01-15T02:18:41;4.73;;;4.63;;
17390;SDS011;8813;54.444;18.446;2024-01-15T02:21:08;4.97;;;4.87;;
17390;SDS011;8813;54.444;18.446;2024-01-15T02:23:37;4.30;;;4.20;;
17390;SDS011;8813;54.444;18.446;2024-01-15T02:26:05;4.90;;;4.80;;
17390;SDS011;8813;54.444;18.446;2024-01-15T02:28:33;4.87;;;4.77;;
17390;SDS011;8813;54.444;18.446;2024-01-15T02:31:01;5.07;;;4.97;;
17390;SDS011;8813;54.444;18.446;2024-01-15T02:33:29;5.13;;;5.03;;
17390;SDS011;8813;54.444;18.446;2024-01-15T02:35:56;5.33;;;5.03;;
17390;SDS011;8813;54.444;18.446;2024-01-15T02:38:23;5.00;;;4.90;;
17390;SDS011;8813;54.444;18.446;2024-01-15T02:40:51;5.10;;;5.00;;
17390;SDS011;8813;54.444;18.446;2024-01-15T02:43:18;5.20;;;5.10;;
17390;SDS011;8813;54.444;18.446;2024-01-15T02:45:45;5.20;;;5.10;;
17390;SDS011;8813;54.444;18.446;2024-01-15T02:48:13;5.33;;;5.23;;
17390;SDS011;8813;54.444;18.446;2024-01-15T02:50:40;6.00;;;5.80;;
17390;SDS011;8813;54.444;18.446;2024-01-15T02:53:07;5.27;;;5.17;;
17390;SDS011;8813;54.444;18.446;2024-01-15T02:55:36;5.30;;;5.20;;
17390;SDS011;8813;54.444;18.446;2024-01-15T02:58:05;6.60;;;6.40;;
17390;SDS011;8813;54.444;18.446;2024-01-15T03:00:32;6.07;;;5.87;;
17390;SDS011;8813;54.444;18.446;2024-01-15T03:03:02;5.80;;;5.70;;
17390;SDS011;8813;54.444;18.446;2024-01-15T03:05:30;6.07;;;5.87;;
17390;SDS011;8813;54.444;18.446;2024-01-15T03:07:56;6.20;;;6.10;;
17390;SDS011;8813;54.444;18.446;2024-01-15T03:10:25;6.60;;;6.50;;
17390;SDS011;8813;54.444;18.446;2024-01-15T03:12:52;7.50;;;7.30;;
17390;SDS011;8813;54.444;18.446;2024-01-15T03:15:21;7.70;;;7.50;;
17390;SDS011;8813;54.444;18.446;2024-01-15T03:17:49;8.23;;;8.03;;
17390;SDS011;8813;54.444;18.446;2024-01-15T03:20:16;7.83;;;7.63;;
17390;SDS011;8813;54.444;18.446;2024-01-15T03:22:45;8.23;;;8.03;;
17390;SDS011;8813;54.444;18.446;2024-01-15T03:25:14;9.30;;;9.00;;
17390;SDS011;8813;54.444;18.446;2024-01-15T03:27:41;9.50;;;9.30;;
17390;SDS011;8813;54.444;18.446;2024-01-15T03:30:08;10.03;;;9.73;;
17390;SDS011;8813;54.444;18.446;2024-01-15T03:32:37;9.83;;;9.50;;
17390;SDS011;8813;54.444;18.446;2024-01-15T03:35:05;10.00;;;9.70;;
17390;SDS011;8813;54.444;18.446;2024-01-15T03:37:32;10.17;;;9.87;;
17390;SDS011;8813;54.444;18.446;2024-01-15T03:40:00;10.80;;;10.50;;
17390;SDS011;8813;54.444;18.446;2024-01-15T03:42:27;11.47;;;11.10;;
17390;SDS011;8813;54.444;18.446;2024-01-15T03:47:26;10.77;;;10.47;;
17390;SDS011;8813;54.444;18.446;2024-01-15T03:49:54;11.20;;;10.90;;
17390;SDS011;8813;54.444;18.446;2024-01-15T03:52:21;10.90;;;10.60;;
17390;SDS011;8813;54.444;18.446;2024-01-15T03:54:48;10.83;;;10.53;;
17390;SDS011;8813;54.444;18.446;2024-01-15T03:57:15;11.00;;;10.70;;
17390;SDS011;8813;54.444;18.446;2024-01-15T03:59:42;10.83;;;10.53;;
17390;SDS011;8813;54.444;18.446;2024-01-15T04:02:12;11.17;;;10.77;;
17390;SDS011;8813;54.444;18.446;2024-01-15T04:04:42;11.03;;;10.63;;
17390;SDS011;8813;54.444;18.446;2024-01-15T04:07:11;10.60;;;10.30;;
17390;SDS011;8813;54.444;18.446;2024-01-15T04:09:38;10.80;;;10.50;;
17390;SDS011;8813;54.444;18.446;2024-01-15T04:12:07;11.43;;;11.13;;
17390;SDS011;8813;54.444;18.446;2024-01-15T04:14:34;10.70;;;10.40;;
17390;SDS011;8813;54.444;18.446;2024-01-15T04:22:59;11.03;;;10.73;;
17390;SDS011;8813;54.444;18.446;2024-01-15T04:25:27;11.13;;;10.83;;
17390;SDS011;8813;54.444;18.446;2024-01-15T04:27:54;10.27;;;9.97;;
17390;SDS011;8813;54.444;18.446;2024-01-15T04:30:21;10.77;;;10.47;;
17390;SDS011;8813;54.444;18.446;2024-01-15T04:32:48;10.57;;;10.27;;
17390;SDS011;8813;54.444;18.446;2024-01-15T04:35:15;11.10;;;10.80;;
17390;SDS011;8813;54.444;18.446;2024-01-15T04:37:44;11.30;;;11.00;;
17390;SDS011;8813;54.444;18.446;2024-01-15T04:40:14;11.53;;;11.23;;
17390;SDS011;8813;54.444;18.446;2024-01-15T04:42:43;11.10;;;10.80;;
17390;SDS011;8813;54.444;18.446;2024-01-15T04:45:11;11.00;;;10.70;;
17390;SDS011;8813;54.444;18.446;2024-01-15T04:47:38;11.37;;;11.07;;
17390;SDS011;8813;54.444;18.446;2024-01-15T04:50:06;11.60;;;11.30;;
17390;SDS011;8813;54.444;18.446;2024-01-15T04:52:35;11.97;;;11.67;;
17390;SDS011;8813;54.444;18.446;2024-01-15T04:55:03;11.80;;;11.50;;
17390;SDS011;8813;54.444;18.446;2024-01-15T04:57:32;11.50;;;11.20;;
17390;SDS011;8813;54.444;18.446;2024-01-15T04:59:59;11.30;;;11.00;;
17390;SDS011;8813;54.444;18.446;2024-01-15T05:02:26;10.80;;;10.50;;
17390;SDS011;8813;54.444;18.446;2024-01-15T05:04:54;10.77;;;10.47;;
17390;SDS011;8813;54.444;18.446;2024-01-15T05:07:21;10.73;;;10.40;;
17390;SDS011;8813;54.444;18.446;2024-01-15T05:09:50;10.70;;;10.40;;
17390;SDS011;8813;54.444;18.446;2024-01-15T05:12:17;10.00;;;9.70;;
17390;SDS011;8813;54.444;18.446;2024-01-15T05:14:48;9.83;;;9.53;;
17390;SDS011;8813;54.444;18.446;2024-01-15T05:17:15;9.20;;;9.00;;
17390;SDS011;8813;54.444;18.446;2024-01-15T05:19:42;9.20;;;8.90;;
17390;SDS011;8813;54.444;18.446;2024-01-15T05:22:10;7.57;;;7.27;;
17390;SDS011;8813;54.444;18.446;2024-01-15T05:24:37;7.20;;;7.00;;
17390;SDS011;8813;54.444;18.446;2024-01-15T05:27:05;7.07;;;6.87;;
17390;SDS011;8813;54.444;18.446;2024-01-15T05:29:33;7.57;;;7.37;;
17390;SDS011;8813;54.444;18.446;2024-01-15T05:32:03;7.27;;;6.97;;
17390;SDS011;8813;54.444;18.446;2024-01-15T05:34:31;7.87;;;7.67;;
17390;SDS011;8813;54.444;18.446;2024-01-15T05:36:58;6.53;;;6.33;;
17390;SDS011;8813;54.444;18.446;2024-01-15T05:39:27;6.33;;;6.23;;
17390;SDS011;8813;54.444;18.446;2024-01-15T05:41:56;6.37;;;6.27;;
17390;SDS011;8813;54.444;18.446;2024-01-15T05:44:24;6.60;;;6.40;;
17390;SDS011;8813;54.444;18.446;2024-01-15T05:46:51;6.50;;;6.30;;
17390;SDS011;8813;54.444;18.446;2024-01-15T05:49:22;6.30;;;6.20;;
17390;SDS011;8813;54.444;18.446;2024-01-15T05:51:50;6.47;;;6.27;;
17390;SDS011;8813;54.444;18.446;2024-01-15T05:54:18;5.50;;;5.40;;
17390;SDS011;8813;54.444;18.446;2024-01-15T05:56:45;5.47;;;5.27;;
17390;SDS011;8813;54.444;18.446;2024-01-15T05:59:13;5.10;;;5.00;;
17390;SDS011;8813;54.444;18.446;2024-01-15T06:04:10;4.60;;;4.50;;
17390;SDS011;8813;54.444;18.446;2024-01-15T06:06:39;5.47;;;5.27;;
17390;SDS011;8813;54.444;18.446;2024-01-15T06:09:06;5.57;;;5.37;;
17390;SDS011;8813;54.444;18.446;2024-01-15T06:11:35;5.03;;;4.93;;
17390;SDS011;8813;54.444;18.446;2024-01-15T06:14:02;4.60;;;4.50;;
17390;SDS011;8813;54.444;18.446;2024-01-15T06:16:29;4.30;;;4.20;;
17390;SDS011;8813;54.444;18.446;2024-01-15T06:18:56;4.47;;;4.33;;
17390;SDS011;8813;54.444;18.446;2024-01-15T06:21:24;3.60;;;3.50;;
17390;SDS011;8813;54.444;18.446;2024-01-15T06:23:53;4.27;;;3.97;;
17390;SDS011;8813;54.444;18.446;2024-01-15T06:26:21;3.17;;;3.17;;
17390;SDS011;8813;54.444;18.446;2024-01-15T06:28:48;3.50;;;3.40;;
17390;SDS011;8813;54.444;18.446;2024-01-15T06:31:15;3.80;;;3.70;;
17390;SDS011;8813;54.444;18.446;2024-01-15T06:33:42;3.87;;;3.73;;
17390;SDS011;8813;54.444;18.446;2024-01-15T06:36:12;3.90;;;3.80;;
17390;SDS011;8813;54.444;18.446;2024-01-15T06:38:39;3.67;;;3.57;;
17390;SDS011;8813;54.444;18.446;2024-01-15T06:41:08;3.60;;;3.50;;
17390;SDS011;8813;54.444;18.446;2024-01-15T06:43:35;3.23;;;3.17;;
17390;SDS011;8813;54.444;18.446;2024-01-15T06:46:03;3.80;;;3.70;;
17390;SDS011;8813;54.444;18.446;2024-01-15T06:48:31;4.13;;;3.93;;
17390;SDS011;8813;54.444;18.446;2024-01-15T06:50:59;3.70;;;3.60;;
17390;SDS011;8813;54.444;18.446;2024-01-15T06:53:27;3.93;;;3.83;;
17390;SDS011;8813;54.444;18.446;2024-01-15T06:55:54;3.80;;;3.70;;
17390;SDS011;8813;54.444;18.446;2024-01-15T06:58:23;4.50;;;4.07;;
17390;SDS011;8813;54.444;18.446;2024-01-15T07:00:50;3.80;;;3.70;;
17390;SDS011;8813;54.444;18.446;2024-01-15T07:03:18;3.80;;;3.70;;
17390;SDS011;8813;54.444;18.446;2024-01-15T07:05:45;4.23;;;4.10;;
17390;SDS011;8813;54.444;18.446;2024-01-15T07:08:12;4.50;;;4.10;;
17390;SDS011;8813;54.444;18.446;2024-01-15T07:10:45;4.53;;;4.43;;
17390;SDS011;8813;54.444;18.446;2024-01-15T07:13:15;4.53;;;4.33;;
17390;SDS011;8813;54.444;18.446;2024-01-15T07:15:46;4.30;;;4.20;;
17390;SDS011;8813;54.444;18.446;2024-01-15T07:18:13;5.07;;;4.80;;
17390;SDS011;8813;54.444;18.446;2024-01-15T07:20:42;4.53;;;4.43;;
17390;SDS011;8813;54.444;18.446;2024-01-15T07:23:09;4.10;;;4.00;;
17390;SDS011;8813;54.444;18.446;2024-01-15T07:25:37;4.40;;;4.30;;
17390;SDS011;8813;54.444;18.446;2024-01-15T07:28:05;6.03;;;5.83;;
17390;SDS011;8813;54.444;18.446;2024-01-15T07:30:33;4.03;;;3.93;;
17390;SDS011;8813;54.444;18.446;2024-01-15T07:33:02;4.20;;;4.10;;
17390;SDS011;8813;54.444;18.446;2024-01-15T07:35:30;5.27;;;5.03;;
17390;SDS011;8813;54.444;18.446;2024-01-15T07:37:59;4.83;;;4.63;;
17390;SDS011;8813;54.444;18.446;2024-01-15T07:40:26;4.50;;;4.40;;
17390;SDS011;8813;54.444;18.446;2024-01-15T07:42:53;4.60;;;4.50;;
17390;SDS011;8813;54.444;18.446;2024-01-15T07:45:23;4.57;;;4.47;;
17390;SDS011;8813;54.444;18.446;2024-01-15T07:47:53;5.20;;;5.10;;
17390;SDS011;8813;54.444;18.446;2024-01-15T07:50:21;5.07;;;4.97;;
17390;SDS011;8813;54.444;18.446;2024-01-15T07:52:49;5.23;;;5.07;;
17390;SDS011;8813;54.444;18.446;2024-01-15T07:55:18;5.57;;;5.47;;
17390;SDS011;8813;54.444;18.446;2024-01-15T07:57:46;5.53;;;5.33;;
17390;SDS011;8813;54.444;18.446;2024-01-15T08:00:15;5.23;;;5.03;;
17390;SDS011;8813;54.444;18.446;2024-01-15T08:02:44;5.80;;;5.50;;
17390;SDS011;8813;54.444;18.446;2024-01-15T08:05:13;7.23;;;6.97;;
17390;SDS011;8813;54.444;18.446;2024-01-15T08:07:42;4.87;;;4.77;;
17390;SDS011;8813;54.444;18.446;2024-01-15T08:10:11;4.37;;;4.27;;
17390;SDS011;8813;54.444;18.446;2024-01-15T08:12:39;4.50;;;4.30;;
17390;SDS011;8813;54.444;18.446;2024-01-15T08:15:06;4.70;;;4.60;;
17390;SDS011;8813;54.444;18.446;2024-01-15T08:17:35;4.20;;;4.10;;
17390;SDS011;8813;54.444;18.446;2024-01-15T08:20:04;5.40;;;5.20;;
17390;SDS011;8813;54.444;18.446;2024-01-15T08:22:32;5.13;;;4.93;;
17390;SDS011;8813;54.444;18.446;2024-01-15T08:25:01;10.00;;;9.23;;
17390;SDS011;8813;54.444;18.446;2024-01-15T08:27:29;5.20;;;5.10;;
17390;SDS011;8813;54.444;18.446;2024-01-15T08:29:56;4.30;;;4.20;;
17390;SDS011;8813;54.444;18.446;2024-01-15T08:34:53;4.63;;;4.53;;
17390;SDS011;8813;54.444;18.446;2024-01-15T08:37:21;4.80;;;4.70;;
17390;SDS011;8813;54.444;18.446;2024-01-15T08:39:50;5.20;;;5.00;;
17390;SDS011;8813;54.444;18.446;2024-01-15T08:42:19;4.63;;;4.43;;
17390;SDS011;8813;54.444;18.446;2024-01-15T08:44:48;5.50;;;5.20;;
17390;SDS011;8813;54.444;18.446;2024-01-15T08:49:48;5.73;;;5.53;;
17390;SDS011;8813;54.444;18.446;2024-01-15T08:52:15;7.03;;;6.83;;
17390;SDS011;8813;54.444;18.446;2024-01-15T08:54:44;7.90;;;7.70;;
17390;SDS011;8813;54.444;18.446;2024-01-15T08:57:13;7.13;;;6.93;;
17390;SDS011;8813;54.444;18.446;2024-01-15T08:59:45;7.90;;;7.70;;
17390;SDS011;8813;54.444;18.446;2024-01-15T09:02:12;7.93;;;7.63;;
17390;SDS011;8813;54.444;18.446;2024-01-15T09:04:40;7.50;;;7.30;;
17390;SDS011;8813;54.444;18.446;2024-01-15T09:07:09;7.87;;;7.63;;
17390;SDS011;8813;54.444;18.446;2024-01-15T09:09:37;7.10;;;6.90;;
17390;SDS011;8813;54.444;18.446;2024-01-15T09:12:05;7.23;;;7.03;;
17390;SDS011;8813;54.444;18.446;2024-01-15T09:14:33;7.23;;;6.97;;
17390;SDS011;8813;54.444;18.446;2024-01-15T09:17:03;6.17;;;5.97;;
17390;SDS011;8813;54.444;18.446;2024-01-15T09:19:31;6.00;;;5.80;;
17390;SDS011;8813;54.444;18.446;2024-01-15T09:21:58;6.10;;;6.00;;
17390;SDS011;8813;54.444;18.446;2024-01-15T09:24:26;6.10;;;5.90;;
17390;SDS011;8813;54.444;18.446;2024-01-15T09:26:53;5.10;;;4.90;;
17390;SDS011;8813;54.444;18.446;2024-01-15T09:29:21;6.00;;;5.80;;
17390;SDS011;8813;54.444;18.446;2024-01-15T09:31:48;4.80;;;4.70;;
17390;SDS011;8813;54.444;18.446;2024-01-15T09:34:17;4.97;;;4.87;;
17390;SDS011;8813;54.444;18.446;2024-01-15T09:36:44;4.80;;;4.70;;
17390;SDS011;8813;54.444;18.446;2024-01-15T09:39:11;5.43;;;5.33;;
17390;SDS011;8813;54.444;18.446;2024-01-15T09:41:38;5.20;;;5.10;;
17390;SDS011;8813;54.444;18.446;2024-01-15T09:44:08;4.50;;;4.40;;
17390;SDS011;8813;54.444;18.446;2024-01-15T09:46:35;6.17;;;5.70;;
17390;SDS011;8813;54.444;18.446;2024-01-15T09:49:02;5.27;;;5.17;;
17390;SDS011;8813;54.444;18.446;2024-01-15T09:51:32;5.17;;;4.97;;
17390;SDS011;8813;54.444;18.446;2024-01-15T09:54:00;4.80;;;4.70;;
17390;SDS011;8813;54.444;18.446;2024-01-15T09:56:28;4.40;;;4.30;;
17390;SDS011;8813;54.444;18.446;2024-01-15T09:59:02;4.50;;;4.40;;
17390;SDS011;8813;54.444;18.446;2024-01-15T10:01:31;4.53;;;4.43;;
17390;SDS011;8813;54.444;18.446;2024-01-15T10:03:58;6.33;;;5.90;;
17390;SDS011;8813;54.444;18.446;2024-01-15T10:06:27;5.80;;;5.43;;
17390;SDS011;8813;54.444;18.446;2024-01-15T10:08:56;5.17;;;5.07;;
17390;SDS011;8813;54.444;18.446;2024-01-15T10:11:24;4.40;;;4.30;;
17390;SDS011;8813;54.444;18.446;2024-01-15T10:13:51;4.20;;;4.10;;
17390;SDS011;8813;54.444;18.446;2024-01-15T10:16:20;4.73;;;4.63;;
17390;SDS011;8813;54.444;18.446;2024-01-15T10:18:49;3.90;;;3.80;;
17390;SDS011;8813;54.444;18.446;2024-01-15T10:21:18;3.93;;;3.73;;
17390;SDS011;8813;54.444;18.446;2024-01-15T10:23:47;4.13;;;4.03;;
17390;SDS011;8813;54.444;18.446;2024-01-15T10:26:17;3.80;;;3.70;;
17390;SDS011;8813;54.444;18.446;2024-01-15T10:28:44;3.93;;;3.83;;
17390;SDS011;8813;54.444;18.446;2024-01-15T10:31:12;3.93;;;3.83;;
17390;SDS011;8813;54.444;18.446;2024-01-15T10:33:41;3.57;;;3.47;;
17390;SDS011;8813;54.444;18.446;2024-01-15T10:36:09;4.13;;;3.93;;
17390;SDS011;8813;54.444;18.446;2024-01-15T10:38:36;4.60;;;4.50;;
17390;SDS011;8813;54.444;18.446;2024-01-15T10:41:04;4.87;;;4.77;;
17390;SDS011;8813;54.444;18.446;2024-01-15T10:43:33;6.00;;;5.80;;
17390;SDS011;8813;54.444;18.446;2024-01-15T10:46:00;7.00;;;6.70;;
17390;SDS011;8813;54.444;18.446;2024-01-15T10:48:32;6.90;;;6.70;;
17390;SDS011;8813;54.444;18.446;2024-01-15T10:51:01;6.30;;;6.10;;
17390;SDS011;8813;54.444;18.446;2024-01-15T10:53:35;6.53;;;6.33;;
17390;SDS011;8813;54.444;18.446;2024-01-15T10:56:04;5.33;;;5.23;;
17390;SDS011;8813;54.444;18.446;2024-01-15T10:58:33;5.73;;;5.13;;
17390;SDS011;8813;54.444;18.446;2024-01-15T11:01:02;4.73;;;4.53;;
17390;SDS011;8813;54.444;18.446;2024-01-15T11:03:30;5.30;;;5.10;;
17390;SDS011;8813;54.444;18.446;2024-01-15T11:05:57;6.43;;;6.10;;
17390;SDS011;8813;54.444;18.446;2024-01-15T11:08:24;5.93;;;5.73;;
17390;SDS011;8813;54.444;18.446;2024-01-15T11:10:52;9.53;;;5.70;;
17390;SDS011;8813;54.444;18.446;2024-01-15T11:13:21;4.90;;;4.80;;
17390;SDS011;8813;54.444;18.446;2024-01-15T11:15:56;5.57;;;5.37;;
17390;SDS011;8813;54.444;18.446;2024-01-15T11:18:26;4.60;;;4.50;;
17390;SDS011;8813;54.444;18.446;2024-01-15T11:23:49;5.87;;;5.57;;
17390;SDS011;8813;54.444;18.446;2024-01-15T11:26:30;8.27;;;7.77;;
17390;SDS011;8813;54.444;18.446;2024-01-15T11:28:59;6.13;;;5.93;;
17390;SDS011;8813;54.444;18.446;2024-01-15T11:31:56;5.13;;;5.03;;
17390;SDS011;8813;54.444;18.446;2024-01-15T11:34:55;5.50;;;5.30;;
17390;SDS011;8813;54.444;18.446;2024-01-15T11:37:28;6.20;;;5.70;;
17390;SDS011;8813;54.444;18.446;2024-01-15T11:39:59;4.53;;;4.33;;
17390;SDS011;8813;54.444;18.446;2024-01-15T11:42:29;3.70;;;3.60;;
17390;SDS011;8813;54.444;18.446;2024-01-15T11:44:56;4.03;;;3.93;;
17390;SDS011;8813;54.444;18.446;2024-01-15T11:50:24;3.30;;;3.20;;
17390;SDS011;8813;54.444;18.446;2024-01-15T11:52:53;3.43;;;3.33;;
17390;SDS011;8813;54.444;18.446;2024-01-15T11:55:27;3.60;;;3.50;;
17390;SDS011;8813;54.444;18.446;2024-01-15T11:57:57;3.83;;;3.73;;
17390;SDS011;8813;54.444;18.446;2024-01-15T12:00:24;3.90;;;3.80;;
17390;SDS011;8813;54.444;18.446;2024-01-15T12:02:54;3.73;;;3.63;;
17390;SDS011;8813;54.444;18.446;2024-01-15T12:05:22;4.00;;;3.90;;
17390;SDS011;8813;54.444;18.446;2024-01-15T12:07:49;4.00;;;3.70;;
17390;SDS011;8813;54.444;18.446;2024-01-15T12:12:54;4.30;;;4.20;;
17390;SDS011;8813;54.444;18.446;2024-01-15T12:15:24;4.73;;;4.40;;
17390;SDS011;8813;54.444;18.446;2024-01-15T12:17:53;3.93;;;3.83;;
17390;SDS011;8813;54.444;18.446;2024-01-15T12:20:21;4.20;;;4.10;;
17390;SDS011;8813;54.444;18.446;2024-01-15T12:22:49;4.00;;;3.90;;
17390;SDS011;8813;54.444;18.446;2024-01-15T12:25:18;4.13;;;3.87;;
17390;SDS011;8813;54.444;18.446;2024-01-15T12:27:46;3.70;;;3.60;;
17390;SDS011;8813;54.444;18.446;2024-01-15T12:30:17;4.47;;;4.27;;
17390;SDS011;8813;54.444;18.446;2024-01-15T12:32:51;4.47;;;4.37;;
17390;SDS011;8813;54.444;18.446;2024-01-15T12:35:20;4.50;;;4.20;;
17390;SDS011;8813;54.444;18.446;2024-01-15T12:37:47;8.53;;;4.97;;
17390;SDS011;8813;54.444;18.446;2024-01-15T12:40:18;4.23;;;4.03;;
17390;SDS011;8813;54.444;18.446;2024-01-15T12:42:47;4.20;;;3.90;;
17390;SDS011;8813;54.444;18.446;2024-01-15T12:45:16;3.77;;;3.67;;
17390;SDS011;8813;54.444;18.446;2024-01-15T12:47:44;4.63;;;4.37;;
17390;SDS011;8813;54.444;18.446;2024-01-15T12:50:12;6.23;;;4.23;;
17390;SDS011;8813;54.444;18.446;2024-01-15T12:52:41;4.50;;;4.10;;
17390;SDS011;8813;54.444;18.446;2024-01-15T12:57:38;4.00;;;3.90;;
17390;SDS011;8813;54.444;18.446;2024-01-15T13:00:06;4.30;;;4.13;;
17390;SDS011;8813;54.444;18.446;2024-01-15T13:02:38;3.77;;;3.67;;
17390;SDS011;8813;54.444;18.446;2024-01-15T13:05:09;3.97;;;3.70;;
17390;SDS011;8813;54.444;18.446;2024-01-15T13:07:38;3.30;;;3.20;;
17390;SDS011;8813;54.444;18.446;2024-01-15T13:10:07;4.10;;;4.00;;
17390;SDS011;8813;54.444;18.446;2024-01-15T13:12:35;3.90;;;3.80;;
17390;SDS011;8813;54.444;18.446;2024-01-15T13:15:09;3.57;;;3.47;;
17390;SDS011;8813;54.444;18.446;2024-01-15T13:17:37;3.60;;;3.50;;
17390;SDS011;8813;54.444;18.446;2024-01-15T13:20:05;3.63;;;3.50;;
17390;SDS011;8813;54.444;18.446;2024-01-15T13:22:34;4.07;;;3.97;;
17390;SDS011;8813;54.444;18.446;2024-01-15T13:25:06;3.90;;;3.70;;
17390;SDS011;8813;54.444;18.446;2024-01-15T13:27:36;3.87;;;3.77;;
17390;SDS011;8813;54.444;18.446;2024-01-15T13:30:04;4.40;;;4.30;;
17390;SDS011;8813;54.444;18.446;2024-01-15T13:32:33;5.03;;;4.80;;
17390;SDS011;8813;54.444;18.446;2024-01-15T13:35:00;4.80;;;4.70;;
17390;SDS011;8813;54.444;18.446;2024-01-15T13:37:30;4.73;;;4.53;;
17390;SDS011;8813;54.444;18.446;2024-01-15T13:39:58;4.70;;;4.50;;
17390;SDS011;8813;54.444;18.446;2024-01-15T13:42:26;4.83;;;4.70;;
17390;SDS011;8813;54.444;18.446;2024-01-15T13:44:59;5.10;;;5.00;;
17390;SDS011;8813;54.444;18.446;2024-01-15T13:47:29;5.80;;;5.60;;
17390;SDS011;8813;54.444;18.446;2024-01-15T13:49:56;6.00;;;5.80;;
17390;SDS011;8813;54.444;18.446;2024-01-15T13:52:26;5.30;;;5.20;;
17390;SDS011;8813;54.444;18.446;2024-01-15T13:54:54;6.43;;;6.13;;
17390;SDS011;8813;54.444;18.446;2024-01-15T13:57:22;6.83;;;6.63;;
17390;SDS011;8813;54.444;18.446;2024-01-15T13:59:50;7.20;;;7.00;;
17390;SDS011;8813;54.444;18.446;2024-01-15T14:02:19;8.03;;;7.73;;
17390;SDS011;8813;54.444;18.446;2024-01-15T14:04:47;7.70;;;7.40;;
17390;SDS011;8813;54.444;18.446;2024-01-15T14:07:15;7.70;;;7.50;;
17390;SDS011;8813;54.444;18.446;2024-01-15T14:09:43;7.43;;;7.13;;
17390;SDS011;8813;54.444;18.446;2024-01-15T14:12:11;7.30;;;7.00;;
17390;SDS011;8813;54.444;18.446;2024-01-15T14:17:09;7.50;;;7.30;;
17390;SDS011;8813;54.444;18.446;2024-01-15T14:19:37;7.40;;;7.20;;
17390;SDS011;8813;54.444;18.446;2024-01-15T14:22:09;7.50;;;7.30;;
17390;SDS011;8813;54.444;18.446;2024-01-15T14:24:36;8.70;;;8.40;;
17390;SDS011;8813;54.444;18.446;2024-01-15T14:27:05;8.03;;;7.83;;
17390;SDS011;8813;54.444;18.446;2024-01-15T14:29:35;8.13;;;7.93;;
17390;SDS011;8813;54.444;18.446;2024-01-15T14:32:03;8.83;;;8.50;;
17390;SDS011;8813;54.444;18.446;2024-01-15T14:34:32;8.37;;;8.17;;
17390;SDS011;8813;54.444;18.446;2024-01-15T14:37:02;9.10;;;8.57;;
17390;SDS011;8813;54.444;18.446;2024-01-15T14:39:29;9.23;;;8.83;;
17390;SDS011;8813;54.444;18.446;2024-01-15T14:42:05;8.20;;;8.00;;
17390;SDS011;8813;54.444;18.446;2024-01-15T14:44:32;8.13;;;7.93;;
17390;SDS011;8813;54.444;18.446;2024-01-15T14:47:00;7.10;;;6.90;;
17390;SDS011;8813;54.444;18.446;2024-01-15T14:49:28;7.00;;;6.80;;
17390;SDS011;8813;54.444;18.446;2024-01-15T14:51:59;9.00;;;8.80;;
17390;SDS011;8813;54.444;18.446;2024-01-15T14:54:26;7.53;;;7.30;;
17390;SDS011;8813;54.444;18.446;2024-01-15T14:56:53;9.00;;;8.80;;
17390;SDS011;8813;54.444;18.446;2024-01-15T14:59:24;10.93;;;10.10;;
17390;SDS011;8813;54.444;18.446;2024-01-15T15:04:22;7.90;;;7.70;;
17390;SDS011;8813;54.444;18.446;2024-01-15T15:06:50;8.10;;;7.90;;
17390;SDS011;8813;54.444;18.446;2024-01-15T15:09:20;8.10;;;7.90;;
17390;SDS011;8813;54.444;18.446;2024-01-15T15:11:53;7.77;;;7.57;;
17390;SDS011;8813;54.444;18.446;2024-01-15T15:14:19;6.20;;;6.10;;
17390;SDS011;8813;54.444;18.446;2024-01-15T15:16:53;8.00;;;7.80;;
17390;SDS011;8813;54.444;18.446;2024-01-15T15:19:20;7.10;;;6.90;;
17390;SDS011;8813;54.444;18.446;2024-01-15T15:21:49;8.00;;;7.80;;
17390;SDS011;8813;54.444;18.446;2024-01-15T15:24:16;8.10;;;7.90;;
17390;SDS011;8813;54.444;18.446;2024-01-15T15:26:46;6.90;;;6.70;;